createdAt,value
2022-11-29T00:02:21.581Z,98158.53
2022-11-29T00:05:09.703Z,98160.47
2022-11-29T00:08:07.015Z,98165.00
2022-11-29T00:10:54.570Z,98149.56
2022-11-29T00:13:44.271Z,98154.03
2022-11-29T00:16:32.616Z,98149.69
2022-11-29T00:19:21.671Z,98148.03
2022-11-29T00:22:35.008Z,98153.28
2022-11-29T00:25:25.989Z,98154.25
2022-11-29T00:28:13.932Z,98146.38
2022-11-29T00:31:02.097Z,98150.91
2022-11-29T00:33:49.851Z,98147.41
2022-11-29T00:36:39.625Z,98148.25
2022-11-29T00:39:27.850Z,98151.00
2022-11-29T00:42:18.857Z,98152.69
2022-11-29T00:45:09.486Z,98154.50
2022-11-29T00:47:57.454Z,98161.53
2022-11-29T00:50:45.433Z,98151.00
2022-11-29T00:53:36.349Z,98151.13
2022-11-29T00:56:53.575Z,98145.88
2022-11-29T00:59:44.290Z,98147.66
2022-11-29T01:02:32.410Z,98148.50
2022-11-29T01:05:23.164Z,98145.75
2022-11-29T01:08:11.647Z,98144.09
2022-11-29T01:11:22.568Z,98133.56
2022-11-29T01:14:11.814Z,98140.50
2022-11-29T01:16:59.704Z,98138.00
2022-11-29T01:19:50.770Z,98147.66
2022-11-29T01:22:40.480Z,98141.59
2022-11-29T01:25:29.358Z,98142.41
2022-11-29T01:28:24.841Z,98138.00
2022-11-29T01:31:15.798Z,98142.41
2022-11-29T01:35:05.761Z,98136.31
2022-11-29T01:38:05.624Z,98143.38
2022-11-29T01:41:01.243Z,98143.38
2022-11-29T01:43:59.790Z,98138.09
2022-11-29T01:46:48.958Z,98139.78
2022-11-29T01:49:40.672Z,98133.81
2022-11-29T01:52:32.310Z,98140.72
2022-11-29T01:55:20.893Z,98132.84
2022-11-29T01:58:10.528Z,98138.22
2022-11-29T02:01:00.568Z,98136.44
2022-11-29T02:03:51.031Z,98136.56
2022-11-29T02:06:40.220Z,98138.22
2022-11-29T02:09:28.673Z,98129.63
2022-11-29T02:12:40.523Z,98134.03
2022-11-29T02:15:43.750Z,98136.78
2022-11-29T02:18:42.150Z,98134.91
2022-11-29T02:21:39.646Z,98135.81
2022-11-29T02:25:10.191Z,98140.16
2022-11-29T02:28:43.092Z,98140.16
2022-11-29T02:32:24.428Z,98139.19
2022-11-29T02:35:34.500Z,98135.59
2022-11-29T02:47:04.169Z,98134.63
2022-11-29T02:50:29.655Z,98133.69
2022-11-29T02:53:26.821Z,98134.50
2022-11-29T02:56:24.435Z,98136.31
2022-11-29T02:59:21.700Z,98138.84
2022-11-29T03:02:21.247Z,98140.63
2022-11-29T03:05:20.417Z,98155.44
2022-11-29T03:08:14.983Z,98144.91
2022-11-29T03:11:13.925Z,98150.91
2022-11-29T03:14:15.837Z,98153.53
2022-11-29T03:17:16.810Z,98154.50
2022-11-29T03:20:32.543Z,98157.94
2022-11-29T03:23:25.990Z,98151.63
2022-11-29T03:29:32.358Z,98158.56
2022-11-29T03:32:28.434Z,98162.84
2022-11-29T03:35:22.077Z,98161.06
2022-11-29T03:38:20.335Z,98167.16
2022-11-29T03:46:12.935Z,98172.44
2022-11-29T03:49:06.439Z,98164.41
2022-11-29T03:52:05.264Z,98170.50
2022-11-29T03:55:06.560Z,98165.22
2022-11-29T03:58:12.272Z,98169.56
2022-11-29T04:01:22.593Z,98165.97
2022-11-29T04:04:37.572Z,98166.94
2022-11-29T04:07:46.931Z,98169.56
2022-11-29T04:11:11.790Z,98156.41
2022-11-29T04:14:29.020Z,98167.63
2022-11-29T04:17:57.035Z,98168.34
2022-11-29T04:21:19.468Z,98164.75
2022-11-29T04:29:07.887Z,98170.03
2022-11-29T04:32:47.707Z,98170.03
2022-11-29T04:35:52.725Z,98174.44
2022-11-29T04:39:08.889Z,98177.06
2022-11-29T04:42:31.703Z,98175.28
2022-11-29T05:12:58.815Z,98194.88
2022-11-29T05:16:23.034Z,98190.59
2022-11-29T05:24:05.279Z,98212.25
2022-11-29T05:27:50.904Z,98219.16
2022-11-29T05:39:05.280Z,98225.41
2022-11-29T05:42:21.375Z,98219.16
2022-11-29T05:45:37.050Z,98220.03
2022-11-29T05:52:45.339Z,98226.72
2022-11-29T05:55:44.140Z,98231.97
2022-11-29T05:58:49.666Z,98228.38
2022-11-29T06:01:51.247Z,98234.47
2022-11-29T06:05:01.253Z,98231.72
2022-11-29T06:07:57.643Z,98235.06
2022-11-29T06:11:05.938Z,98237.00
2022-11-29T06:14:25.133Z,98242.25
2022-11-29T06:17:40.548Z,98244.88
2022-11-29T06:20:54.800Z,98242.25
2022-11-29T06:27:06.280Z,98249.19
2022-11-29T06:30:00.558Z,98255.28
2022-11-29T06:33:28.981Z,98258.84
2022-11-29T06:37:17.384Z,98261.38
2022-11-29T06:41:03.168Z,98260.44
2022-11-29T06:44:04.067Z,98257.56
2022-11-29T06:47:39.866Z,98262.84
2022-11-29T06:51:26.772Z,98263.66
2022-11-29T06:54:35.994Z,98269.75
2022-11-29T06:57:45.394Z,98274.06
2022-11-29T07:04:33.882Z,98283.66
2022-11-29T07:07:24.896Z,98278.38
2022-11-29T07:10:18.143Z,98282.69
2022-11-29T07:13:14.428Z,98285.31
2022-11-29T07:16:14.727Z,98287.72
2022-11-29T07:19:16.534Z,98289.50
2022-11-29T07:22:12.856Z,98286.75
2022-11-29T07:25:11.548Z,98294.53
2022-11-29T07:28:08.160Z,98294.53
2022-11-29T07:31:05.916Z,98295.13
2022-11-29T07:34:07.716Z,98296.81
2022-11-29T07:37:08.210Z,98302.06
2022-11-29T07:40:04.482Z,98299.44
2022-11-29T07:43:04.155Z,98305.31
2022-11-29T07:45:53.951Z,98308.75
2022-11-29T07:48:42.144Z,98314.16
2022-11-29T07:51:34.589Z,98309.63
2022-11-29T07:54:23.026Z,98307.72
2022-11-29T07:57:20.804Z,98313.56
2022-11-29T08:00:12.551Z,98308.28
2022-11-29T08:03:00.604Z,98314.28
2022-11-29T08:05:49.039Z,98315.72
2022-11-29T08:08:44.003Z,98314.75
2022-11-29T08:11:32.578Z,98320.00
2022-11-29T08:14:23.617Z,98320.88
2022-11-29T08:17:11.653Z,98330.31
2022-11-29T08:20:04.291Z,98324.00
2022-11-29T08:23:01.106Z,98326.50
2022-11-29T08:25:50.538Z,98334.88
2022-11-29T08:28:38.667Z,98332.13
2022-11-29T08:31:32.333Z,98329.38
2022-11-29T08:34:23.468Z,98337.03
2022-11-29T08:37:11.800Z,98332.72
2022-11-29T08:40:09.080Z,98337.75
2022-11-29T08:43:26.412Z,98344.22
2022-11-29T08:46:16.911Z,98344.22
2022-11-29T08:49:06.875Z,98342.31
2022-11-29T08:52:15.243Z,98347.31
2022-11-29T08:55:03.427Z,98347.31
2022-11-29T08:57:55.209Z,98345.41
2022-11-29T09:00:46.765Z,98352.09
2022-11-29T09:03:53.880Z,98353.56
2022-11-29T09:06:46.271Z,98355.09
2022-11-29T09:09:34.305Z,98359.28
2022-11-29T09:12:25.995Z,98359.16
2022-11-29T09:15:21.378Z,98373.88
2022-11-29T09:18:15.679Z,98365.84
2022-11-29T09:21:06.252Z,98364.56
2022-11-29T09:24:01.762Z,98372.47
2022-11-29T09:26:51.741Z,98362.38
2022-11-29T09:29:39.727Z,98368.13
2022-11-29T09:32:27.589Z,98367.16
2022-11-29T09:35:20.508Z,98365.25
2022-11-29T09:38:14.882Z,98372.69
2022-11-29T09:41:25.030Z,98376.50
2022-11-29T09:44:27.826Z,98373.63
2022-11-29T09:47:33.731Z,98370.28
2022-11-29T09:50:33.612Z,98369.56
2022-11-29T09:53:37.985Z,98372.41
2022-11-29T09:56:34.469Z,98379.22
2022-11-29T09:59:36.200Z,98378.28
2022-11-29T10:02:32.483Z,98380.53
2022-11-29T10:05:28.907Z,98380.53
2022-11-29T10:08:25.715Z,98377.63
2022-11-29T10:11:28.188Z,98380.28
2022-11-29T10:14:21.876Z,98383.38
2022-11-29T10:17:20.366Z,98385.06
2022-11-29T10:20:22.558Z,98385.53
2022-11-29T10:23:26.566Z,98380.75
2022-11-29T10:26:16.666Z,98377.97
2022-11-29T10:29:06.193Z,98376.91
2022-11-29T10:31:56.835Z,98377.72
2022-11-29T10:34:47.761Z,98377.47
2022-11-29T10:37:37.746Z,98378.31
2022-11-29T10:40:37.247Z,98382.50
2022-11-29T10:43:27.168Z,98381.44
2022-11-29T10:46:24.992Z,98382.13
2022-11-29T10:50:30.315Z,98382.25
2022-11-29T10:57:23.378Z,98378.03
2022-11-29T11:00:13.376Z,98379.47
2022-11-29T11:03:25.732Z,98387.38
2022-11-29T11:06:17.737Z,98389.03
2022-11-29T11:09:21.731Z,98386.88
2022-11-29T11:12:21.896Z,98389.66
2022-11-29T11:15:31.213Z,98386.88
2022-11-29T11:18:23.556Z,98377.13
2022-11-29T11:21:14.631Z,98383.84
2022-11-29T11:27:35.660Z,98394.59
2022-11-29T11:30:30.809Z,98390.88
2022-11-29T11:33:22.299Z,98388.94
2022-11-29T11:36:14.119Z,98390.34
2022-11-29T11:39:14.074Z,98387.28
2022-11-29T11:42:23.945Z,98391.72
2022-11-29T11:45:31.230Z,98393.38
2022-11-29T11:48:23.771Z,98396.16
2022-11-29T11:51:23.201Z,98399.25
2022-11-29T11:54:19.152Z,98398.28
2022-11-29T11:57:22.732Z,98403.31
2022-11-29T12:03:59.203Z,98397.31
2022-11-29T12:07:03.012Z,98396.22
2022-11-29T12:10:03.771Z,98401.13
2022-11-29T12:12:53.337Z,98402.66
2022-11-29T12:15:45.256Z,98399.19
2022-11-29T12:18:41.836Z,98400.41
2022-11-29T12:21:41.657Z,98400.63
2022-11-29T12:24:39.159Z,98407.56
2022-11-29T12:27:27.110Z,98407.44
2022-11-29T12:30:16.530Z,98407.75
2022-11-29T12:33:20.078Z,98409.19
2022-11-29T12:36:29.568Z,98409.19
2022-11-29T12:39:45.535Z,98416.72
2022-11-29T12:42:51.795Z,98412.00
2022-11-29T12:45:49.571Z,98420.78
2022-11-29T12:48:49.162Z,98421.16
2022-11-29T12:51:46.738Z,98421.75
2022-11-29T12:54:55.989Z,98418.13
2022-11-29T12:57:52.648Z,98414.91
2022-11-29T13:00:51.293Z,98422.81
2022-11-29T13:03:46.003Z,98424.53
2022-11-29T13:06:40.890Z,98424.41
2022-11-29T13:09:59.391Z,98426.88
2022-11-29T13:12:55.961Z,98426.88
2022-11-29T13:15:50.022Z,98431.22
2022-11-29T13:19:01.108Z,98424.81
2022-11-29T13:21:59.380Z,98429.00
2022-11-29T13:24:53.726Z,98427.34
2022-11-29T13:27:48.521Z,98431.78
2022-11-29T13:30:43.597Z,98431.91
2022-11-29T13:33:36.041Z,98434.41
2022-11-29T13:36:33.211Z,98439.84
2022-11-29T13:39:42.888Z,98439.16
2022-11-29T13:42:41.471Z,98437.44
2022-11-29T13:45:38.580Z,98434.69
2022-11-29T13:48:46.835Z,98444.28
2022-11-29T13:51:39.162Z,98442.47
2022-11-29T13:54:31.299Z,98439.16
2022-11-29T13:57:22.402Z,98442.59
2022-11-29T14:00:31.952Z,98441.78
2022-11-29T14:03:36.261Z,98442.72
2022-11-29T14:06:34.340Z,98445.38
2022-11-29T14:09:36.521Z,98448.00
2022-11-29T14:12:47.056Z,98447.19
2022-11-29T14:15:36.339Z,98449.00
2022-11-29T14:19:03.381Z,98452.59
2022-11-29T14:22:33.813Z,98451.19
2022-11-29T14:28:36.507Z,98460.06
2022-11-29T14:31:55.625Z,98459.38
2022-11-29T14:34:50.352Z,98459.50
2022-11-29T14:37:54.347Z,98456.84
2022-11-29T14:40:53.574Z,98461.28
2022-11-29T14:43:41.975Z,98461.41
2022-11-29T14:46:34.201Z,98456.13
2022-11-29T14:49:26.523Z,98468.50
2022-11-29T14:52:34.660Z,98470.31
2022-11-29T14:55:36.502Z,98467.81
2022-11-29T14:58:24.712Z,98466.09
2022-11-29T15:01:12.668Z,98471.38
2022-11-29T15:04:07.484Z,98478.63
2022-11-29T15:06:59.536Z,98477.75
2022-11-29T15:09:51.824Z,98476.94
2022-11-29T15:12:41.041Z,98484.03
2022-11-29T15:15:39.185Z,98483.28
2022-11-29T15:18:51.320Z,98478.13
2022-11-29T15:21:48.614Z,98488.00
2022-11-29T15:27:30.147Z,98494.47
2022-11-29T15:30:25.030Z,98495.47
2022-11-29T15:33:24.408Z,98501.72
2022-11-29T15:36:18.394Z,98486.81
2022-11-29T15:39:06.412Z,98498.34
2022-11-29T15:41:54.371Z,98502.91
2022-11-29T15:44:49.348Z,98506.50
2022-11-29T15:47:37.338Z,98505.81
2022-11-29T15:50:27.481Z,98511.22
2022-11-29T15:53:21.217Z,98510.38
2022-11-29T15:56:16.384Z,98515.91
2022-11-29T15:59:08.965Z,98511.72
2022-11-29T16:02:01.732Z,98509.91
2022-11-29T16:04:53.420Z,98516.16
2022-11-29T16:07:42.375Z,98520.56
2022-11-29T16:10:35.990Z,98525.97
2022-11-29T16:14:01.554Z,98527.81
2022-11-29T16:16:52.578Z,98534.16
2022-11-29T16:19:43.050Z,98531.63
2022-11-29T16:22:33.756Z,98536.09
2022-11-29T16:25:22.046Z,98538.00
2022-11-29T16:28:13.606Z,98538.13
2022-11-29T16:31:01.713Z,98547.13
2022-11-29T16:33:53.934Z,98545.47
2022-11-29T16:36:45.548Z,98548.22
2022-11-29T16:39:34.326Z,98549.03
2022-11-29T16:42:26.029Z,98550.88
2022-11-29T16:45:33.453Z,98549.28
2022-11-29T16:48:40.887Z,98558.16
2022-11-29T16:51:52.194Z,98551.22
2022-11-29T16:54:42.796Z,98555.66
2022-11-29T16:57:33.787Z,98554.94
2022-11-29T17:00:38.309Z,98555.78
2022-11-29T17:03:27.081Z,98553.38
2022-11-29T17:06:16.965Z,98557.97
2022-11-29T17:09:21.550Z,98558.91
2022-11-29T17:12:15.187Z,98563.34
2022-11-29T17:19:22.707Z,98565.25
2022-11-29T17:22:12.118Z,98564.41
2022-11-29T17:29:42.782Z,98569.94
2022-11-29T17:36:40.748Z,98571.88
2022-11-29T17:39:28.902Z,98576.28
2022-11-29T17:42:17.183Z,98578.19
2022-11-29T17:45:10.055Z,98571.25
2022-11-29T17:48:03.858Z,98578.44
2022-11-29T17:50:55.163Z,98575.94
2022-11-29T17:53:43.605Z,98576.78
2022-11-29T17:56:37.134Z,98583.22
2022-11-29T17:59:25.806Z,98582.50
2022-11-29T18:02:23.969Z,98586.94
2022-11-29T18:05:18.288Z,98586.94
2022-11-29T18:08:06.268Z,98590.53
2022-11-29T18:10:54.379Z,98592.22
2022-11-29T18:13:42.783Z,98592.22
2022-11-29T18:16:35.729Z,98596.66
2022-11-29T18:19:39.440Z,98606.34
2022-11-29T18:22:29.555Z,98609.09
2022-11-29T18:28:39.187Z,98598.53
2022-11-29T18:31:52.011Z,98599.63
2022-11-29T18:34:51.672Z,98603.13
2022-11-29T18:38:13.926Z,98603.25
2022-11-29T18:40:59.489Z,98612.09
2022-11-29T18:43:48.392Z,98619.28
2022-11-29T18:46:37.738Z,98626.34
2022-11-29T18:49:32.208Z,98625.50
2022-11-29T18:52:22.565Z,98622.06
2022-11-29T18:55:10.543Z,98614.97
2022-11-29T18:58:08.248Z,98616.78
2022-11-29T19:00:56.489Z,98617.59
2022-11-29T19:03:46.237Z,98622.06
2022-11-29T19:06:39.673Z,98622.06
2022-11-29T19:09:29.779Z,98619.53
2022-11-29T19:12:20.499Z,98626.47
2022-11-29T19:15:10.722Z,98629.34
2022-11-29T19:17:58.615Z,98628.41
2022-11-29T19:20:46.693Z,98629.34
2022-11-29T19:23:35.832Z,98618.91
2022-11-29T19:26:35.425Z,98629.47
2022-11-29T19:29:23.398Z,98624.31
2022-11-29T19:32:11.521Z,98623.38
2022-11-29T19:34:59.576Z,98629.69
2022-11-29T19:37:50.515Z,98633.28
2022-11-29T19:40:41.526Z,98630.78
2022-11-29T19:43:34.180Z,98634.38
2022-11-29T19:46:26.361Z,98632.69
2022-11-29T19:49:24.167Z,98640.81
2022-11-29T19:52:15.240Z,98634.00
2022-11-29T19:55:12.451Z,98643.84
2022-11-29T19:58:00.583Z,98631.47
2022-11-29T20:00:54.016Z,98629.81
2022-11-29T20:03:44.507Z,98632.56
2022-11-29T20:06:32.817Z,98640.56
2022-11-29T20:09:21.745Z,98642.34
2022-11-29T20:12:13.205Z,98642.47
2022-11-29T20:15:23.015Z,98645.22
2022-11-29T20:18:50.428Z,98640.06
2022-11-29T20:24:53.386Z,98644.88
2022-11-29T20:27:50.832Z,98643.16
2022-11-29T20:30:43.009Z,98644.25
2022-11-29T20:33:35.588Z,98644.34
2022-11-29T20:36:36.981Z,98647.22
2022-11-29T20:39:39.520Z,98641.25
2022-11-29T20:42:53.776Z,98636.91
2022-11-29T20:45:42.320Z,98634.59
2022-11-29T20:48:32.454Z,98643.59
2022-11-29T20:51:24.452Z,98648.97
2022-11-29T20:54:13.233Z,98652.81
2022-11-29T20:57:00.976Z,98651.25
2022-11-29T20:59:49.341Z,98663.69
2022-11-29T21:02:37.671Z,98662.13
2022-11-29T21:05:28.029Z,98657.88
2022-11-29T21:08:17.471Z,98661.50
2022-11-29T21:11:07.912Z,98658.13
2022-11-29T21:13:56.097Z,98664.34
2022-11-29T21:16:44.558Z,98660.03
2022-11-29T21:19:33.216Z,98666.28
2022-11-29T21:22:29.388Z,98674.41
2022-11-29T21:25:22.721Z,98672.69
2022-11-29T21:31:19.095Z,98685.25
2022-11-29T21:34:08.403Z,98686.09
2022-11-29T21:36:59.275Z,98687.91
2022-11-29T21:39:51.053Z,98692.31
2022-11-29T21:42:39.079Z,98699.25
2022-11-29T21:45:27.230Z,98691.34
2022-11-29T21:48:29.309Z,98702.84
2022-11-29T21:51:17.656Z,98694.94
2022-11-29T21:54:05.750Z,98699.25
2022-11-29T21:56:54.907Z,98699.25
2022-11-29T21:59:43.116Z,98704.50
2022-11-29T22:02:31.439Z,98702.84
2022-11-29T22:05:19.268Z,98703.81
2022-11-29T22:08:07.525Z,98713.38
2022-11-29T22:11:02.797Z,98715.06
2022-11-29T22:14:12.674Z,98704.41
2022-11-29T22:17:05.214Z,98700.97
2022-11-29T22:19:53.011Z,98692.94
2022-11-29T22:22:40.834Z,98701.66
2022-11-29T22:25:28.933Z,98698.91
2022-11-29T22:28:17.052Z,98697.13
2022-11-29T22:31:08.637Z,98706.59
2022-11-29T22:33:56.856Z,98707.44
2022-11-29T22:36:45.055Z,98713.69
2022-11-29T22:39:33.290Z,98711.88
2022-11-29T22:42:21.137Z,98714.38
2022-11-29T22:45:10.903Z,98710.78
2022-11-29T22:48:00.286Z,98709.88
2022-11-29T22:50:50.087Z,98707.13
2022-11-29T22:53:39.968Z,98708.91
2022-11-29T22:56:30.790Z,98708.91
2022-11-29T22:59:20.523Z,98710.56
2022-11-29T23:02:08.608Z,98703.41
2022-11-29T23:04:58.042Z,98706.16
2022-11-29T23:07:47.341Z,98712.28
2022-11-29T23:10:35.365Z,98713.09
2022-11-29T23:13:23.998Z,98717.53
2022-11-29T23:16:14.313Z,98714.16
2022-11-29T23:19:02.953Z,98716.69
2022-11-29T23:21:52.276Z,98709.75
2022-11-29T23:24:42.718Z,98694.78
2022-11-29T23:27:30.674Z,98705.31
2022-11-29T23:30:18.773Z,98707.81
2022-11-29T23:33:06.551Z,98704.38
2022-11-29T23:36:02.127Z,98707.81
2022-11-29T23:38:51.417Z,98711.31
2022-11-29T23:41:41.084Z,98711.44
2022-11-29T23:44:29.083Z,98705.31
2022-11-29T23:47:16.948Z,98698.38
2022-11-29T23:50:07.447Z,98698.38
2022-11-29T23:52:55.578Z,98697.41
2022-11-29T23:55:47.600Z,98692.13
2022-11-29T23:58:36.205Z,98699.22
